createdAt,value
2022-12-01T00:00:23.550Z,101065.69
2022-12-01T00:05:25.057Z,101058.97
2022-12-01T00:10:26.815Z,101058.97
2022-12-01T00:15:31.011Z,101053.91
2022-12-01T00:20:35.543Z,101048.03
2022-12-01T00:25:37.054Z,101041.28
2022-12-01T00:30:38.511Z,101045.50
2022-12-01T00:35:39.970Z,101059.78
2022-12-01T00:40:41.400Z,101058.09
2022-12-01T00:45:43.354Z,101058.09
2022-12-01T00:50:45.733Z,101059.81
2022-12-01T00:55:47.624Z,101057.28
2022-12-01T01:00:49.622Z,101075.78
2022-12-01T01:05:51.168Z,101084.19
2022-12-01T01:10:52.624Z,101082.50
2022-12-01T01:16:03.303Z,101083.34
2022-12-01T01:21:11.154Z,101087.56
2022-12-01T01:26:30.871Z,101088.38
2022-12-01T01:31:32.372Z,101098.47
2022-12-01T01:36:33.911Z,101101.00
2022-12-01T01:41:35.407Z,101099.31
2022-12-01T01:46:37.407Z,101098.44
2022-12-01T01:51:43.456Z,101099.28
2022-12-01T01:56:46.226Z,101100.19
2022-12-01T02:01:55.309Z,101091.75
2022-12-01T02:06:56.911Z,101088.41
2022-12-01T02:12:03.508Z,101089.22
2022-12-01T02:17:31.782Z,101081.66
2022-12-01T02:23:15.348Z,101080.78
2022-12-01T02:28:44.781Z,101072.38
2022-12-01T02:34:23.264Z,101072.38
2022-12-01T02:40:03.705Z,101055.50
2022-12-01T02:45:11.406Z,101063.91
2022-12-01T02:50:13.585Z,101060.56
2022-12-01T02:55:15.062Z,101071.53
2022-12-01T03:00:17.953Z,101071.50
2022-12-01T03:05:38.190Z,101073.16
2022-12-01T03:10:57.818Z,101061.38
2022-12-01T03:16:21.710Z,101069.78
2022-12-01T03:21:32.090Z,101062.16
2022-12-01T03:26:36.375Z,101064.66
2022-12-01T03:31:44.856Z,101057.94
2022-12-01T03:36:52.678Z,101060.44
2022-12-01T03:41:59.856Z,101070.53
2022-12-01T03:47:09.129Z,101066.31
2022-12-01T03:52:20.374Z,101060.44
2022-12-01T03:57:29.773Z,101063.78
2022-12-01T04:02:31.945Z,101072.16
2022-12-01T04:07:33.586Z,101067.13
2022-12-01T04:12:35.144Z,101076.38
2022-12-01T04:17:36.969Z,101079.75
2022-12-01T04:22:38.572Z,101074.69
2022-12-01T04:27:40.253Z,101076.34
2022-12-01T04:32:43.520Z,101076.34
2022-12-01T04:37:44.949Z,101080.53
2022-12-01T04:42:46.365Z,101087.25
2022-12-01T04:47:47.792Z,101084.75
2022-12-01T04:52:49.417Z,101088.94
2022-12-01T04:57:50.850Z,101080.56
2022-12-01T05:02:52.350Z,101084.75
2022-12-01T05:07:53.945Z,101081.34
2022-12-01T05:12:57.730Z,101104.06
2022-12-01T05:17:59.410Z,101097.34
2022-12-01T05:23:05.732Z,101096.50
2022-12-01T05:28:07.718Z,101094.81
2022-12-01T05:33:09.255Z,101107.44
2022-12-01T05:38:11.789Z,101099.88
2022-12-01T05:43:13.234Z,101110.81
2022-12-01T05:48:14.690Z,101096.50
2022-12-01T05:53:16.810Z,101095.69
2022-12-01T05:58:18.250Z,101104.94
2022-12-01T06:03:19.723Z,101108.31
2022-12-01T06:08:21.199Z,101116.69
2022-12-01T06:13:22.973Z,101118.38
2022-12-01T06:18:25.668Z,101114.19
2022-12-01T06:23:30.330Z,101121.75
2022-12-01T06:28:32.372Z,101112.50
2022-12-01T06:33:34.138Z,101123.41
2022-12-01T06:38:37.128Z,101112.50
2022-12-01T06:43:38.755Z,101122.63
2022-12-01T06:48:40.234Z,101127.69
2022-12-01T06:53:41.691Z,101130.22
2022-12-01T06:58:43.165Z,101122.66
2022-12-01T07:03:49.618Z,101129.41
2022-12-01T07:08:52.429Z,101126.09
2022-12-01T07:13:57.091Z,101132.84
2022-12-01T07:18:59.974Z,101132.81
2022-12-01T07:24:03.115Z,101136.22
2022-12-01T07:29:04.605Z,101146.34
2022-12-01T07:34:06.445Z,101155.53
2022-12-01T07:39:08.776Z,101159.72
2022-12-01T07:44:11.147Z,101163.91
2022-12-01T07:49:15.005Z,101165.56
2022-12-01T07:54:17.643Z,101168.97
2022-12-01T07:59:19.131Z,101173.22
2022-12-01T08:04:20.565Z,101179.13
2022-12-01T08:09:22.036Z,101171.56
2022-12-01T08:14:23.488Z,101172.38
2022-12-01T08:19:25.859Z,101175.75
2022-12-01T08:24:27.342Z,101177.41
2022-12-01T08:29:28.831Z,101182.44
2022-12-01T08:34:30.364Z,101188.28
2022-12-01T08:39:31.857Z,101194.22
2022-12-01T08:44:33.308Z,101190.06
2022-12-01T08:49:35.107Z,101197.63
2022-12-01T08:54:36.779Z,101206.00
2022-12-01T08:59:38.533Z,101191.72
2022-12-01T09:04:40.019Z,101203.50
2022-12-01T09:09:41.972Z,101198.50
2022-12-01T09:14:49.528Z,101205.22
2022-12-01T09:19:51.307Z,101200.19
2022-12-01T09:24:53.079Z,101211.16
2022-12-01T09:29:54.532Z,101206.13
2022-12-01T09:34:55.977Z,101213.75
2022-12-01T09:39:57.425Z,101206.19
2022-12-01T09:45:02.724Z,101206.16
2022-12-01T09:50:06.598Z,101193.53
2022-12-01T09:55:16.322Z,101199.41
2022-12-01T10:00:24.791Z,101196.91
2022-12-01T10:05:31.756Z,101182.56
2022-12-01T10:10:46.365Z,101186.75
2022-12-01T10:15:53.880Z,101185.97
2022-12-01T10:21:23.525Z,101179.25
2022-12-01T10:26:43.298Z,101165.81
2022-12-01T10:31:52.646Z,101161.63
2022-12-01T10:36:57.253Z,101145.72
2022-12-01T10:42:13.775Z,101148.31
2022-12-01T10:47:21.738Z,101148.25
2022-12-01T10:52:38.564Z,101144.81
2022-12-01T10:58:11.522Z,101137.28
2022-12-01T11:16:08.112Z,101117.94
2022-12-01T11:27:42.532Z,101107.81
2022-12-01T11:32:29.194Z,101118.75
2022-12-01T11:37:38.174Z,101114.56
2022-12-01T11:42:41.457Z,101117.09
2022-12-01T11:48:06.318Z,101108.69
2022-12-01T11:53:39.215Z,101102.78
2022-12-01T11:58:44.654Z,101098.56
2022-12-01T12:04:01.963Z,101089.28
2022-12-01T12:09:21.854Z,101090.97
2022-12-01T12:14:40.000Z,101093.50
2022-12-01T12:20:07.672Z,101093.47
2022-12-01T12:25:27.627Z,101094.34
2022-12-01T12:30:31.461Z,101089.28
2022-12-01T12:36:01.144Z,101087.59
2022-12-01T12:41:41.583Z,101082.56
2022-12-01T12:47:03.666Z,101080.03
2022-12-01T12:52:12.596Z,101082.56
2022-12-01T12:57:59.774Z,101078.34
2022-12-01T13:03:34.042Z,101082.56
2022-12-01T13:08:41.274Z,101082.56
2022-12-01T13:13:55.028Z,101075.00
2022-12-01T13:19:07.786Z,101076.69
2022-12-01T13:24:26.239Z,101076.69
2022-12-01T13:29:42.449Z,101080.03
2022-12-01T13:34:50.903Z,101079.22
2022-12-01T13:39:59.741Z,101069.06
2022-12-01T13:45:08.377Z,101057.25
2022-12-01T13:50:43.102Z,101057.28
2022-12-01T13:56:06.872Z,101054.78
2022-12-01T14:01:26.618Z,101051.41
2022-12-01T14:06:32.981Z,101050.50
2022-12-01T14:11:36.603Z,101044.59
2022-12-01T14:17:12.526Z,101046.28
2022-12-01T14:22:54.554Z,101047.97
2022-12-01T14:28:13.294Z,101045.47
2022-12-01T14:33:33.718Z,101043.78
2022-12-01T14:38:54.771Z,101031.16
2022-12-01T14:44:15.586Z,101053.09
2022-12-01T14:49:47.198Z,101052.25
2022-12-01T14:55:14.439Z,101053.09
2022-12-01T15:06:06.233Z,101043.81
2022-12-01T15:11:21.889Z,101048.88
2022-12-01T15:16:32.122Z,101052.22
2022-12-01T15:21:36.448Z,101036.22
2022-12-01T15:26:47.416Z,101044.66
2022-12-01T15:31:56.729Z,101041.28
2022-12-01T15:37:02.640Z,101042.97
2022-12-01T15:42:13.745Z,101037.91
2022-12-01T15:47:50.175Z,101037.91
2022-12-01T15:52:54.131Z,101037.94
2022-12-01T15:57:58.353Z,101044.66
2022-12-01T16:03:03.372Z,101043.84
2022-12-01T16:08:20.091Z,101043.84
2022-12-01T16:13:47.466Z,101047.19
2022-12-01T16:19:04.249Z,101046.34
2022-12-01T16:24:06.419Z,101046.34
2022-12-01T16:29:23.928Z,101049.72
2022-12-01T16:34:45.292Z,101046.38
2022-12-01T16:39:48.119Z,101040.47
2022-12-01T16:44:51.504Z,101043.00
2022-12-01T16:49:55.862Z,101049.75
2022-12-01T16:55:02.535Z,101049.72
2022-12-01T17:00:04.596Z,101049.72
2022-12-01T17:05:06.493Z,101045.53
2022-12-01T17:10:08.661Z,101058.13
2022-12-01T17:15:10.636Z,101059.81
2022-12-01T17:20:12.985Z,101063.22
2022-12-01T17:25:14.617Z,101063.22
2022-12-01T17:30:16.409Z,101061.50
2022-12-01T17:35:18.269Z,101061.53
2022-12-01T17:40:20.019Z,101062.34
2022-12-01T18:03:33.881Z,101069.13
2022-12-01T18:08:50.226Z,101069.94
2022-12-01T18:20:43.710Z,101063.22
2022-12-01T18:25:19.043Z,101066.56
2022-12-01T18:35:59.679Z,101065.72
2022-12-01T18:41:12.564Z,101067.44
2022-12-01T18:47:17.562Z,101063.19
2022-12-01T18:52:07.810Z,101052.25
2022-12-01T18:57:18.264Z,101050.56
2022-12-01T19:07:57.669Z,101050.56
2022-12-01T19:12:59.220Z,101044.69
2022-12-01T19:18:00.937Z,101039.63
2022-12-01T19:23:02.395Z,101042.16
2022-12-01T19:28:03.919Z,101040.47
2022-12-01T19:33:05.588Z,101032.91
2022-12-01T19:38:07.511Z,101028.66
2022-12-01T19:43:09.140Z,101024.44
2022-12-01T19:48:10.559Z,101024.44
2022-12-01T19:53:12.000Z,101025.28
2022-12-01T19:58:13.508Z,101032.03
2022-12-01T20:03:14.941Z,101037.91
2022-12-01T20:08:16.384Z,101032.84
2022-12-01T20:13:17.794Z,101034.53
2022-12-01T20:18:19.386Z,101035.38
2022-12-01T20:23:20.805Z,101032.00
2022-12-01T20:28:22.285Z,101038.75
2022-12-01T20:33:24.861Z,101047.19
2022-12-01T20:38:27.789Z,101045.50
2022-12-01T20:43:29.439Z,101053.09
2022-12-01T20:48:31.668Z,101042.09
2022-12-01T20:53:33.190Z,101042.13
2022-12-01T20:58:37.736Z,101038.75
2022-12-01T21:03:41.980Z,101043.84
2022-12-01T21:08:45.033Z,101031.22
2022-12-01T21:13:46.942Z,101036.28
2022-12-01T21:18:55.461Z,101026.16
2022-12-01T21:23:59.892Z,101029.50
2022-12-01T21:29:02.705Z,101025.28
2022-12-01T21:34:13.882Z,101018.53
2022-12-01T21:39:21.434Z,101026.13
2022-12-01T21:44:29.892Z,101020.25
2022-12-01T21:49:38.483Z,101019.41
2022-12-01T21:54:39.891Z,101018.53
2022-12-01T21:59:41.281Z,101012.63
2022-12-01T22:04:43.344Z,101016.81
2022-12-01T22:09:44.755Z,101015.13
2022-12-01T22:14:46.167Z,101012.63
2022-12-01T22:20:02.478Z,101010.94
2022-12-01T22:25:25.258Z,101009.25
2022-12-01T22:30:26.676Z,101005.88
2022-12-01T22:35:32.900Z,101003.34
2022-12-01T22:40:45.673Z,101001.66
2022-12-01T22:45:49.373Z,100994.97
2022-12-01T22:50:52.052Z,100993.28
2022-12-01T22:55:55.712Z,100988.25
2022-12-01T23:01:22.306Z,100992.44
2022-12-01T23:06:54.930Z,100998.34
2022-12-01T23:12:00.679Z,100992.47
2022-12-01T23:17:07.744Z,100999.19
2022-12-01T23:22:10.181Z,100994.97
2022-12-01T23:27:11.980Z,101002.56
2022-12-01T23:32:13.533Z,100991.63
2022-12-01T23:37:31.600Z,100989.06
2022-12-01T23:42:33.111Z,100988.25
2022-12-01T23:47:34.643Z,100980.66
2022-12-01T23:52:36.819Z,100978.13
2022-12-01T23:57:38.299Z,100973.94
